createdAt,value
2019-05-10T00:00:55.002Z,24.70
2019-05-10T00:03:41.821Z,24.37
2019-05-10T00:06:28.726Z,24.70
2019-05-10T00:08:56.902Z,23.40
2019-05-10T00:11:27.332Z,24.50
2019-05-10T00:13:57.833Z,25.20
2019-05-10T00:16:27.054Z,24.67
2019-05-10T00:18:56.149Z,22.67
2019-05-10T00:21:25.017Z,24.07
2019-05-10T00:23:54.032Z,24.63
2019-05-10T00:26:22.922Z,26.47
2019-05-10T00:28:51.918Z,25.73
2019-05-10T00:31:20.906Z,26.07
2019-05-10T00:33:49.799Z,25.73
2019-05-10T00:36:19.096Z,25.93
2019-05-10T00:38:48.091Z,27.83
2019-05-10T00:41:16.959Z,30.23
2019-05-10T00:43:45.870Z,33.77
2019-05-10T00:46:14.967Z,38.60
2019-05-10T00:48:43.857Z,40.60
2019-05-10T00:51:12.725Z,34.43
2019-05-10T00:53:41.715Z,33.57
2019-05-10T00:56:10.629Z,32.53
2019-05-10T00:58:39.519Z,32.60
2019-05-10T01:01:08.513Z,32.60
2019-05-10T01:03:37.405Z,27.93
2019-05-10T01:06:06.405Z,27.00
2019-05-10T01:08:35.490Z,28.07
2019-05-10T01:11:04.488Z,27.07
2019-05-10T01:13:33.680Z,28.07
2019-05-10T01:16:02.878Z,28.60
2019-05-10T01:18:31.744Z,29.27
2019-05-10T01:21:00.633Z,26.50
2019-05-10T01:23:29.651Z,27.77
2019-05-10T01:25:58.542Z,28.23
2019-05-10T01:28:27.430Z,27.77
2019-05-10T01:30:56.424Z,34.83
2019-05-10T01:33:25.316Z,39.37
2019-05-10T01:35:54.209Z,39.70
2019-05-10T01:38:23.199Z,36.97
2019-05-10T01:40:52.091Z,39.60
2019-05-10T01:43:20.979Z,34.60
2019-05-10T01:45:49.970Z,38.40
2019-05-10T01:48:18.834Z,37.50
2019-05-10T01:50:47.727Z,38.80
2019-05-10T01:53:16.641Z,34.90
2019-05-10T01:55:52.209Z,34.47
2019-05-10T01:58:16.009Z,33.13
2019-05-10T02:00:44.929Z,33.47
2019-05-10T02:03:13.789Z,33.57
2019-05-10T02:05:42.644Z,31.67
2019-05-10T02:08:11.526Z,46.23
2019-05-10T02:10:40.862Z,48.07
2019-05-10T02:13:09.715Z,49.30
2019-05-10T02:15:38.611Z,37.10
2019-05-10T02:18:07.458Z,35.57
2019-05-10T02:20:36.288Z,39.33
2019-05-10T02:23:05.221Z,38.47
2019-05-10T02:25:34.047Z,36.80
2019-05-10T02:28:02.915Z,27.83
2019-05-10T02:30:31.804Z,22.23
2019-05-10T02:33:00.657Z,24.67
2019-05-10T02:35:29.554Z,28.77
2019-05-10T02:37:58.391Z,28.53
2019-05-10T02:40:27.238Z,28.30
2019-05-10T02:42:56.089Z,24.47
2019-05-10T02:45:24.993Z,28.50
2019-05-10T02:47:53.830Z,31.77
2019-05-10T02:50:23.687Z,32.67
2019-05-10T02:52:52.572Z,34.83
2019-05-10T02:55:21.822Z,33.80
2019-05-10T02:57:51.549Z,35.80
2019-05-10T03:00:20.649Z,36.30
2019-05-10T03:02:50.004Z,37.47
2019-05-10T03:05:18.864Z,36.47
2019-05-10T03:07:48.886Z,42.47
2019-05-10T03:10:17.833Z,39.10
2019-05-10T03:12:49.638Z,39.70
2019-05-10T03:15:18.690Z,37.70
2019-05-10T03:17:49.424Z,41.07
2019-05-10T03:20:18.283Z,39.90
2019-05-10T03:22:47.968Z,41.30
2019-05-10T03:25:17.111Z,38.17
2019-05-10T03:27:45.954Z,38.70
2019-05-10T03:30:15.065Z,41.07
2019-05-10T03:32:43.890Z,37.67
2019-05-10T03:35:12.748Z,39.63
2019-05-10T03:37:41.739Z,38.77
2019-05-10T03:40:10.690Z,35.47
2019-05-10T03:42:39.537Z,35.80
2019-05-10T03:45:09.150Z,31.93
2019-05-10T03:47:37.969Z,37.23
2019-05-10T03:50:08.474Z,37.20
2019-05-10T03:52:37.420Z,35.50
2019-05-10T03:55:06.854Z,36.40
2019-05-10T03:57:35.709Z,36.00
2019-05-10T04:00:12.099Z,28.13
2019-05-10T04:02:40.953Z,26.80
2019-05-10T04:05:11.296Z,25.33
2019-05-10T04:07:40.199Z,26.97
2019-05-10T04:10:09.486Z,29.30
2019-05-10T04:12:38.329Z,30.77
2019-05-10T04:15:09.184Z,30.20
2019-05-10T04:17:37.992Z,28.83
2019-05-10T04:20:08.147Z,26.27
2019-05-10T04:22:37.018Z,25.53
2019-05-10T04:25:06.883Z,25.80
2019-05-10T04:27:35.715Z,24.37
2019-05-10T04:30:06.431Z,26.73
2019-05-10T04:32:38.574Z,24.50
2019-05-10T04:35:09.023Z,23.10
2019-05-10T04:37:42.062Z,23.93
2019-05-10T04:40:11.317Z,22.00
2019-05-10T04:42:40.155Z,20.73
2019-05-10T04:45:09.379Z,21.10
2019-05-10T04:47:38.266Z,23.43
2019-05-10T04:50:07.185Z,23.70
2019-05-10T04:52:36.060Z,24.43
2019-05-10T04:55:06.904Z,24.87
2019-05-10T04:57:49.318Z,30.97
2019-05-10T05:00:08.778Z,33.90
2019-05-10T05:02:38.022Z,31.50
2019-05-10T05:05:07.796Z,26.53
2019-05-10T05:07:36.709Z,25.30
2019-05-10T05:10:07.435Z,23.63
2019-05-10T05:12:36.278Z,26.53
2019-05-10T05:15:09.220Z,26.27
2019-05-10T05:17:38.093Z,26.83
2019-05-10T05:20:07.359Z,29.30
2019-05-10T05:22:36.265Z,28.70
2019-05-10T05:25:07.320Z,27.20
2019-05-10T05:27:36.165Z,24.93
2019-05-10T05:30:10.041Z,23.53
2019-05-10T05:32:44.432Z,23.53
2019-05-10T05:35:09.397Z,24.13
2019-05-10T05:37:38.313Z,22.93
2019-05-10T05:40:08.467Z,23.70
2019-05-10T05:42:37.308Z,19.83
2019-05-10T05:45:08.113Z,19.47
2019-05-10T05:47:37.727Z,18.70
2019-05-10T05:50:07.705Z,18.30
2019-05-10T05:52:36.712Z,18.23
2019-05-10T05:55:08.906Z,19.83
2019-05-10T05:57:37.759Z,18.80
2019-05-10T06:00:15.745Z,18.27
2019-05-10T06:02:46.434Z,16.20
2019-05-10T06:05:32.898Z,15.90
2019-05-10T06:07:45.691Z,14.87
2019-05-10T06:10:17.275Z,17.70
2019-05-10T06:12:50.320Z,16.32
2019-05-10T06:15:15.760Z,13.80
2019-05-10T06:17:44.665Z,13.80
2019-05-10T06:20:13.639Z,9.45
2019-05-10T06:22:43.886Z,7.85
2019-05-10T06:25:13.058Z,7.25
2019-05-10T06:27:43.221Z,6.00
2019-05-10T06:30:12.645Z,6.65
2019-05-10T06:32:41.569Z,6.65
2019-05-10T06:35:14.243Z,6.47
2019-05-10T06:37:41.089Z,6.97
2019-05-10T06:40:10.349Z,7.22
2019-05-10T06:42:39.200Z,7.67
2019-05-10T06:45:14.247Z,6.92
2019-05-10T06:47:42.158Z,7.30
2019-05-10T06:50:11.101Z,7.42
2019-05-10T06:52:40.017Z,8.78
2019-05-10T06:55:09.101Z,9.18
2019-05-10T06:57:37.952Z,10.00
2019-05-10T07:00:08.263Z,9.13
2019-05-10T07:02:37.159Z,8.50
2019-05-10T07:05:06.328Z,8.10
2019-05-10T07:07:43.656Z,7.83
2019-05-10T07:10:18.347Z,7.72
2019-05-10T07:12:39.553Z,7.58
2019-05-10T07:15:09.261Z,8.63
2019-05-10T07:17:45.206Z,7.03
2019-05-10T07:20:08.992Z,7.50
2019-05-10T07:22:37.844Z,7.42
2019-05-10T07:25:07.713Z,7.03
2019-05-10T07:27:40.614Z,7.40
2019-05-10T07:30:09.587Z,6.70
2019-05-10T07:32:38.481Z,7.17
2019-05-10T07:35:07.667Z,6.22
2019-05-10T07:37:36.701Z,6.85
2019-05-10T07:40:08.707Z,8.23
2019-05-10T07:42:39.663Z,7.17
2019-05-10T07:45:08.167Z,7.45
2019-05-10T07:47:37.034Z,6.87
2019-05-10T07:50:09.938Z,6.15
2019-05-10T07:52:43.510Z,8.50
2019-05-10T07:55:10.640Z,6.42
2019-05-10T07:57:39.287Z,6.35
2019-05-10T08:00:08.554Z,6.30
2019-05-10T08:02:37.492Z,5.72
2019-05-10T08:05:10.866Z,4.95
2019-05-10T08:07:38.785Z,4.22
2019-05-10T08:10:08.853Z,3.67
2019-05-10T08:12:41.558Z,3.50
2019-05-10T08:15:08.799Z,3.42
2019-05-10T08:17:43.389Z,3.33
2019-05-10T08:20:15.055Z,3.02
2019-05-10T08:22:42.290Z,4.05
2019-05-10T08:25:12.659Z,4.33
2019-05-10T08:27:43.996Z,3.72
2019-05-10T08:30:23.613Z,3.87
2019-05-10T08:32:42.520Z,3.70
2019-05-10T08:35:17.145Z,4.87
2019-05-10T08:37:43.249Z,6.33
2019-05-10T08:40:12.897Z,4.75
2019-05-10T08:42:48.116Z,4.15
2019-05-10T08:45:12.787Z,3.62
2019-05-10T08:47:42.629Z,4.15
2019-05-10T08:50:28.874Z,4.15
2019-05-10T08:52:42.642Z,3.60
2019-05-10T08:55:12.280Z,4.08
2019-05-10T08:57:44.516Z,3.87
2019-05-10T09:00:13.015Z,4.42
2019-05-10T09:02:42.831Z,4.20
2019-05-10T09:05:12.583Z,5.03
2019-05-10T09:07:43.012Z,4.10
2019-05-10T09:10:12.946Z,4.62
2019-05-10T09:12:51.042Z,4.37
2019-05-10T09:15:13.657Z,4.17
2019-05-10T09:17:43.176Z,3.83
2019-05-10T09:20:20.829Z,3.35
2019-05-10T09:22:43.189Z,3.75
2019-05-10T09:25:12.953Z,3.80
2019-05-10T09:27:43.128Z,4.42
2019-05-10T09:30:14.121Z,5.83
2019-05-10T09:32:43.892Z,4.30
2019-05-10T09:35:13.217Z,4.78
2019-05-10T09:37:42.376Z,4.78
2019-05-10T09:40:13.216Z,3.87
2019-05-10T09:42:43.578Z,5.58
2019-05-10T09:45:13.021Z,6.60
2019-05-10T09:47:43.357Z,4.45
2019-05-10T09:50:13.224Z,3.83
2019-05-10T09:52:42.121Z,4.17
2019-05-10T09:55:14.874Z,4.05
2019-05-10T09:57:41.722Z,3.33
2019-05-10T10:00:11.082Z,3.60
2019-05-10T10:02:40.907Z,3.67
2019-05-10T10:05:10.444Z,3.98
2019-05-10T10:07:39.317Z,3.00
2019-05-10T10:10:12.929Z,3.12
2019-05-10T10:12:38.829Z,4.33
2019-05-10T10:15:10.723Z,4.20
2019-05-10T10:17:42.209Z,3.60
2019-05-10T10:20:08.822Z,3.25
2019-05-10T10:22:38.265Z,2.55
2019-05-10T10:25:07.634Z,3.47
2019-05-10T10:27:39.349Z,4.60
2019-05-10T10:30:12.838Z,4.43
2019-05-10T10:32:39.768Z,3.20
2019-05-10T10:35:13.225Z,2.87
2019-05-10T10:37:39.502Z,2.40
2019-05-10T10:40:09.099Z,3.20
2019-05-10T10:42:38.423Z,2.93
2019-05-10T10:45:08.694Z,2.67
2019-05-10T10:47:38.039Z,2.73
2019-05-10T10:50:13.210Z,2.67
2019-05-10T10:52:38.670Z,1.60
2019-05-10T10:55:11.316Z,1.80
2019-05-10T10:57:39.319Z,1.80
2019-05-10T11:00:10.265Z,2.27
2019-05-10T11:02:41.501Z,2.50
2019-05-10T11:05:10.489Z,2.17
2019-05-10T11:07:44.350Z,2.60
2019-05-10T11:10:16.052Z,2.43
2019-05-10T11:12:41.280Z,2.30
2019-05-10T11:15:11.445Z,1.50
2019-05-10T11:17:40.927Z,2.13
2019-05-10T11:20:11.483Z,4.43
2019-05-10T11:22:42.095Z,2.90
2019-05-10T11:25:12.831Z,4.03
2019-05-10T11:27:42.010Z,2.07
2019-05-10T11:30:12.293Z,2.07
2019-05-10T11:32:41.817Z,1.27
2019-05-10T11:35:11.936Z,1.13
2019-05-10T11:37:45.388Z,1.90
2019-05-10T11:40:12.462Z,1.70
2019-05-10T11:42:43.660Z,1.30
2019-05-10T11:45:12.684Z,2.13
2019-05-10T11:47:42.396Z,1.50
2019-05-10T11:50:26.560Z,1.60
2019-05-10T11:52:42.225Z,1.47
2019-05-10T11:55:11.740Z,0.80
2019-05-10T11:57:44.118Z,1.40
2019-05-10T12:00:24.624Z,2.30
2019-05-10T12:03:01.097Z,1.37
2019-05-10T12:05:19.880Z,2.23
2019-05-10T12:07:46.033Z,1.50
2019-05-10T12:10:20.640Z,0.93
2019-05-10T12:13:00.451Z,1.10
2019-05-10T12:15:15.011Z,0.90
2019-05-10T12:17:46.876Z,0.80
2019-05-10T12:22:47.673Z,2.17
2019-05-10T12:25:37.558Z,1.60
2019-05-10T12:26:59.181Z,1.90
2019-05-10T12:27:51.494Z,1.03
2019-05-10T12:30:18.080Z,0.90
2019-05-10T12:32:56.259Z,1.33
2019-05-10T12:35:17.561Z,2.30
2019-05-10T12:40:45.616Z,1.30
2019-05-10T12:43:11.906Z,1.73
2019-05-10T12:45:41.804Z,1.70
2019-05-10T12:48:11.080Z,0.90
2019-05-10T12:50:43.686Z,1.00
2019-05-10T12:53:15.760Z,1.20
2019-05-10T12:55:41.046Z,1.50
2019-05-10T12:58:09.888Z,1.60
2019-05-10T13:00:38.737Z,1.50
2019-05-10T13:03:12.787Z,1.90
2019-05-10T13:05:51.342Z,1.30
2019-05-10T13:08:08.651Z,1.10
2019-05-10T13:10:43.165Z,1.13
2019-05-10T13:13:11.149Z,1.50
2019-05-10T13:15:40.040Z,2.53
2019-05-10T13:18:08.970Z,1.93
2019-05-10T13:20:38.719Z,1.93
2019-05-10T13:23:09.956Z,1.77
2019-05-10T13:25:38.302Z,1.70
2019-05-10T13:28:11.138Z,10.33
2019-05-10T13:30:37.667Z,2.80
2019-05-10T13:33:06.675Z,11.30
2019-05-10T13:35:35.526Z,4.37
2019-05-10T13:38:06.513Z,5.30
2019-05-10T13:40:39.194Z,4.27
2019-05-10T13:43:05.507Z,2.23
2019-05-10T13:45:37.854Z,1.63
2019-05-10T13:48:05.026Z,2.57
2019-05-10T13:50:33.900Z,2.53
2019-05-10T13:53:02.766Z,1.33
2019-05-10T13:55:31.762Z,2.07
2019-05-10T13:58:00.628Z,2.20
2019-05-10T14:00:34.177Z,1.60
2019-05-10T14:03:05.059Z,2.00
2019-05-10T14:05:30.571Z,2.83
2019-05-10T14:07:59.480Z,1.60
2019-05-10T14:10:28.409Z,2.10
2019-05-10T14:13:02.707Z,2.63
2019-05-10T14:15:27.791Z,2.40
2019-05-10T14:17:56.674Z,1.50
2019-05-10T14:20:27.505Z,2.77
2019-05-10T14:22:58.792Z,2.37
2019-05-10T14:25:29.359Z,1.00
2019-05-10T14:27:57.374Z,3.73
2019-05-10T14:30:26.229Z,1.47
2019-05-10T14:32:55.134Z,0.83
2019-05-10T14:35:24.535Z,0.83
2019-05-10T14:37:53.450Z,0.80
2019-05-10T14:40:30.681Z,1.00
2019-05-10T14:42:55.703Z,0.70
2019-05-10T14:45:24.588Z,1.17
2019-05-10T14:47:54.436Z,0.80
2019-05-10T14:50:26.199Z,1.77
2019-05-10T14:52:53.793Z,1.20
2019-05-10T14:55:27.983Z,1.40
2019-05-10T14:57:53.213Z,1.70
2019-05-10T15:00:22.463Z,1.00
2019-05-10T15:02:51.403Z,1.43
2019-05-10T15:05:20.242Z,1.10
2019-05-10T15:07:51.152Z,1.00
2019-05-10T15:10:19.675Z,2.53
2019-05-10T15:12:48.539Z,1.07
2019-05-10T15:15:17.475Z,1.10
2019-05-10T15:17:46.410Z,1.27
2019-05-10T15:20:15.564Z,1.50
2019-05-10T15:22:44.404Z,0.90
2019-05-10T15:25:14.780Z,3.33
2019-05-10T15:27:44.495Z,6.10
2019-05-10T15:30:13.700Z,0.80
2019-05-10T15:32:42.577Z,1.13
2019-05-10T15:35:12.146Z,6.53
2019-05-10T15:37:46.008Z,2.40
2019-05-10T15:40:12.049Z,0.90
2019-05-10T15:42:40.900Z,1.90
2019-05-10T15:45:14.654Z,2.77
2019-05-10T15:47:50.674Z,1.90
2019-05-10T15:50:11.532Z,2.13
2019-05-10T15:52:46.269Z,1.60
2019-05-10T15:55:11.270Z,1.50
2019-05-10T15:57:40.141Z,1.20
2019-05-10T16:00:09.451Z,1.50
2019-05-10T16:02:38.319Z,1.53
2019-05-10T16:05:23.295Z,3.20
2019-05-10T16:07:38.564Z,1.57
2019-05-10T16:10:08.229Z,3.03
2019-05-10T16:12:37.861Z,2.50
2019-05-10T16:15:13.532Z,2.10
2019-05-10T16:17:38.986Z,1.57
2019-05-10T16:20:08.137Z,2.07
2019-05-10T16:22:37.037Z,1.93
2019-05-10T16:25:07.207Z,1.57
2019-05-10T16:27:41.658Z,1.73
2019-05-10T16:30:12.018Z,2.93
2019-05-10T16:32:38.856Z,2.77
2019-05-10T16:35:12.883Z,3.07
2019-05-10T16:37:38.427Z,3.63
2019-05-10T16:40:07.872Z,5.23
2019-05-10T16:42:36.728Z,4.53
2019-05-10T16:45:06.240Z,6.00
2019-05-10T16:47:35.097Z,5.63
2019-05-10T16:50:08.294Z,6.80
2019-05-10T16:52:37.256Z,5.17
2019-05-10T16:55:09.724Z,4.80
2019-05-10T16:57:39.477Z,6.83
2019-05-10T17:00:10.715Z,5.10
2019-05-10T17:02:42.216Z,4.57
2019-05-10T17:05:15.165Z,3.70
2019-05-10T17:07:41.098Z,4.30
2019-05-10T17:10:10.173Z,4.00
2019-05-10T17:12:39.063Z,5.73
2019-05-10T17:15:08.463Z,5.57
2019-05-10T17:17:39.147Z,5.50
2019-05-10T17:20:13.870Z,14.23
2019-05-10T17:22:38.937Z,19.37
2019-05-10T17:25:08.702Z,23.70
2019-05-10T17:27:37.572Z,30.47
2019-05-10T17:30:06.918Z,26.17
2019-05-10T17:32:35.759Z,31.03
2019-05-10T17:35:06.915Z,34.23
2019-05-10T17:37:37.441Z,30.07
2019-05-10T17:40:10.143Z,30.73
2019-05-10T17:42:41.397Z,29.87
2019-05-10T17:45:09.767Z,26.80
2019-05-10T17:47:38.623Z,27.67
2019-05-10T17:50:08.085Z,31.40
2019-05-10T17:52:41.992Z,36.13
2019-05-10T17:55:16.074Z,35.40
2019-05-10T17:57:41.328Z,31.53
2019-05-10T18:00:10.879Z,31.77
2019-05-10T18:02:39.724Z,34.27
2019-05-10T18:05:08.785Z,39.03
2019-05-10T18:07:56.932Z,45.37
2019-05-10T18:10:25.876Z,44.00
2019-05-10T18:13:02.538Z,39.23
2019-05-10T18:15:27.665Z,30.57
2019-05-10T18:17:57.490Z,37.60
2019-05-10T18:20:26.359Z,63.20
2019-05-10T18:22:55.257Z,63.23
2019-05-10T18:25:24.127Z,52.40
2019-05-10T18:27:52.990Z,50.97
2019-05-10T18:30:22.100Z,51.83
2019-05-10T18:32:50.953Z,56.13
2019-05-10T18:35:19.856Z,76.83
2019-05-10T18:37:53.727Z,90.17
2019-05-10T18:40:19.327Z,46.27
2019-05-10T18:42:48.213Z,46.20
2019-05-10T18:45:17.097Z,46.87
2019-05-10T18:47:45.967Z,44.77
2019-05-10T18:50:14.935Z,55.20
2019-05-10T18:52:43.811Z,54.97
2019-05-10T18:55:12.866Z,66.57
2019-05-10T18:57:45.399Z,68.10
2019-05-10T19:00:17.563Z,57.43
2019-05-10T19:02:43.304Z,53.10
2019-05-10T19:05:13.499Z,46.77
2019-05-10T19:07:42.573Z,37.40
2019-05-10T19:10:11.542Z,35.07
2019-05-10T19:12:40.737Z,31.83
2019-05-10T19:15:15.408Z,32.23
2019-05-10T19:17:45.858Z,34.20
2019-05-10T19:20:18.239Z,34.37
2019-05-10T19:22:46.318Z,29.70
2019-05-10T19:25:15.181Z,28.97
2019-05-10T19:27:46.430Z,29.23
2019-05-10T19:30:19.983Z,29.87
2019-05-10T19:32:45.387Z,32.13
2019-05-10T19:35:14.407Z,35.60
2019-05-10T19:37:43.307Z,20.97
2019-05-10T19:40:12.375Z,24.67
2019-05-10T19:42:43.264Z,26.10
2019-05-10T19:45:12.824Z,26.37
2019-05-10T19:47:42.456Z,32.07
2019-05-10T19:50:11.380Z,31.90
2019-05-10T19:52:40.233Z,35.20
2019-05-10T19:55:12.939Z,34.87
2019-05-10T19:57:39.650Z,35.10
2019-05-10T20:00:08.729Z,33.00
2019-05-10T20:02:37.604Z,30.73
2019-05-10T20:05:06.751Z,32.67
2019-05-10T20:07:45.234Z,32.43
2019-05-10T20:10:07.671Z,30.27
2019-05-10T20:12:37.223Z,31.37
2019-05-10T20:15:07.651Z,29.83
2019-05-10T20:17:36.679Z,31.47
2019-05-10T20:20:07.434Z,29.23
2019-05-10T20:22:36.595Z,37.17
2019-05-10T20:25:08.992Z,35.13
2019-05-10T20:27:37.897Z,29.07
2019-05-10T20:30:07.457Z,27.33
2019-05-10T20:32:36.323Z,24.97
2019-05-10T20:35:07.580Z,24.77
2019-05-10T20:37:36.514Z,22.93
2019-05-10T20:40:06.989Z,21.20
2019-05-10T20:42:35.907Z,22.10
2019-05-10T20:45:08.162Z,21.90
2019-05-10T20:47:35.578Z,23.33
2019-05-10T20:50:05.306Z,22.37
2019-05-10T20:52:34.173Z,20.40
2019-05-10T20:55:04.408Z,17.70
2019-05-10T20:57:33.343Z,19.83
2019-05-10T21:00:02.204Z,20.87
2019-05-10T21:02:31.092Z,22.23
2019-05-10T21:05:00.008Z,21.20
2019-05-10T21:07:28.911Z,23.23
2019-05-10T21:09:58.006Z,25.13
2019-05-10T21:12:26.915Z,27.40
2019-05-10T21:14:56.145Z,26.57
2019-05-10T21:17:25.017Z,29.30
2019-05-10T21:19:53.943Z,33.37
2019-05-10T21:22:22.815Z,30.53
2019-05-10T21:24:51.696Z,28.47
2019-05-10T21:27:20.615Z,27.90
2019-05-10T21:29:49.467Z,26.80
2019-05-10T21:32:18.318Z,29.40
2019-05-10T21:34:47.230Z,33.17
2019-05-10T21:37:16.102Z,23.67
2019-05-10T21:39:44.967Z,20.97
2019-05-10T21:42:13.906Z,22.30
2019-05-10T21:44:42.978Z,26.43
2019-05-10T21:47:11.832Z,37.17
2019-05-10T21:49:40.738Z,41.27
2019-05-10T21:52:09.610Z,41.30
2019-05-10T21:54:38.452Z,43.90
2019-05-10T21:57:07.429Z,46.20
2019-05-10T21:59:36.363Z,35.90
2019-05-10T22:02:05.343Z,53.57
2019-05-10T22:04:34.279Z,53.47
2019-05-10T22:07:03.149Z,59.77
2019-05-10T22:09:32.023Z,59.10
2019-05-10T22:12:00.949Z,51.60
2019-05-10T22:14:29.858Z,57.03
2019-05-10T22:16:58.715Z,56.17
2019-05-10T22:19:27.638Z,55.07
2019-05-10T22:21:56.493Z,32.23
2019-05-10T22:24:25.338Z,27.27
2019-05-10T22:26:54.258Z,23.87
2019-05-10T22:29:23.146Z,27.33
2019-05-10T22:31:52.080Z,26.73
2019-05-10T22:34:20.980Z,28.57
2019-05-10T22:36:49.827Z,30.37
2019-05-10T22:39:18.680Z,31.10
2019-05-10T22:41:47.614Z,31.10
2019-05-10T22:44:16.461Z,30.53
2019-05-10T22:46:45.345Z,29.10
2019-05-10T22:49:14.272Z,28.07
2019-05-10T22:51:43.140Z,23.10
2019-05-10T22:54:12.014Z,27.13
2019-05-10T22:56:40.913Z,26.70
2019-05-10T22:59:09.785Z,26.33
2019-05-10T23:01:38.637Z,26.13
2019-05-10T23:04:07.524Z,25.83
2019-05-10T23:06:36.391Z,24.33
2019-05-10T23:09:23.530Z,26.90
2019-05-10T23:11:38.104Z,32.53
2019-05-10T23:14:06.993Z,32.63
2019-05-10T23:16:35.880Z,33.67
2019-05-10T23:19:04.776Z,35.00
2019-05-10T23:21:33.634Z,35.17
2019-05-10T23:24:04.078Z,37.90
2019-05-10T23:26:32.970Z,37.50
2019-05-10T23:29:01.840Z,36.63
2019-05-10T23:31:30.700Z,36.70
2019-05-10T23:33:59.648Z,37.23
2019-05-10T23:36:28.621Z,35.60
2019-05-10T23:38:57.481Z,25.60
2019-05-10T23:41:26.369Z,25.37
2019-05-10T23:43:55.217Z,25.00
2019-05-10T23:46:24.090Z,25.67
2019-05-10T23:48:52.993Z,23.07
2019-05-10T23:51:21.858Z,22.20
2019-05-10T23:53:50.727Z,22.57
2019-05-10T23:56:19.683Z,21.60
2019-05-10T23:58:48.540Z,19.00
